sensor_id;sensor_type;location;lat;lon;timestamp;P1;durP1;ratioP1;P2;durP2;ratioP2
68074;SDS011;54864;52.002;5.468;2022-11-20T00:00:43;23.90;;;15.20;;
68074;SDS011;54864;52.002;5.468;2022-11-20T00:01:45;21.27;;;14.88;;
68074;SDS011;54864;52.002;5.468;2022-11-20T00:02:47;23.10;;;14.80;;
68074;SDS011;54864;52.002;5.468;2022-11-20T00:03:48;22.70;;;14.98;;
68074;SDS011;54864;52.002;5.468;2022-11-20T00:04:51;22.35;;;15.20;;
68074;SDS011;54864;52.002;5.468;2022-11-20T00:05:52;22.58;;;15.57;;
68074;SDS011;54864;52.002;5.468;2022-11-20T00:06:54;24.98;;;15.23;;
68074;SDS011;54864;52.002;5.468;2022-11-20T00:07:56;21.27;;;15.30;;
68074;SDS011;54864;52.002;5.468;2022-11-20T00:08:57;23.58;;;15.68;;
68074;SDS011;54864;52.002;5.468;2022-11-20T00:10:01;21.40;;;14.57;;
68074;SDS011;54864;52.002;5.468;2022-11-20T00:11:03;23.70;;;15.60;;
68074;SDS011;54864;52.002;5.468;2022-11-20T00:12:24;22.17;;;15.18;;
68074;SDS011;54864;52.002;5.468;2022-11-20T00:13:25;24.45;;;16.15;;
68074;SDS011;54864;52.002;5.468;2022-11-20T00:14:27;23.90;;;15.40;;
68074;SDS011;54864;52.002;5.468;2022-11-20T00:15:28;25.85;;;16.55;;
68074;SDS011;54864;52.002;5.468;2022-11-20T00:16:30;28.35;;;16.92;;
68074;SDS011;54864;52.002;5.468;2022-11-20T00:17:35;29.27;;;16.80;;
68074;SDS011;54864;52.002;5.468;2022-11-20T00:18:37;29.65;;;17.35;;
68074;SDS011;54864;52.002;5.468;2022-11-20T00:19:38;29.00;;;18.00;;
68074;SDS011;54864;52.002;5.468;2022-11-20T00:20:40;27.58;;;17.73;;
68074;SDS011;54864;52.002;5.468;2022-11-20T00:21:40;28.35;;;17.60;;
68074;SDS011;54864;52.002;5.468;2022-11-20T00:22:42;34.15;;;18.58;;
68074;SDS011;54864;52.002;5.468;2022-11-20T00:23:43;29.33;;;17.63;;
68074;SDS011;54864;52.002;5.468;2022-11-20T00:24:46;32.30;;;18.23;;
68074;SDS011;54864;52.002;5.468;2022-11-20T00:25:47;32.05;;;18.55;;
68074;SDS011;54864;52.002;5.468;2022-11-20T00:26:49;33.88;;;18.85;;
68074;SDS011;54864;52.002;5.468;2022-11-20T00:27:51;31.50;;;18.45;;
68074;SDS011;54864;52.002;5.468;2022-11-20T00:28:52;31.63;;;18.37;;
68074;SDS011;54864;52.002;5.468;2022-11-20T00:29:55;28.77;;;17.65;;
68074;SDS011;54864;52.002;5.468;2022-11-20T00:31:00;31.33;;;17.97;;
68074;SDS011;54864;52.002;5.468;2022-11-20T00:32:04;27.90;;;16.90;;
68074;SDS011;54864;52.002;5.468;2022-11-20T00:33:06;30.67;;;17.00;;
68074;SDS011;54864;52.002;5.468;2022-11-20T00:34:08;30.77;;;18.17;;
68074;SDS011;54864;52.002;5.468;2022-11-20T00:35:09;27.25;;;16.30;;
68074;SDS011;54864;52.002;5.468;2022-11-20T00:36:13;25.75;;;16.30;;
68074;SDS011;54864;52.002;5.468;2022-11-20T00:37:16;28.20;;;17.10;;
68074;SDS011;54864;52.002;5.468;2022-11-20T00:38:18;25.77;;;16.35;;
68074;SDS011;54864;52.002;5.468;2022-11-20T00:39:18;31.67;;;18.17;;
68074;SDS011;54864;52.002;5.468;2022-11-20T00:40:20;26.70;;;17.15;;
68074;SDS011;54864;52.002;5.468;2022-11-20T00:41:21;27.95;;;17.63;;
68074;SDS011;54864;52.002;5.468;2022-11-20T00:42:25;28.30;;;18.17;;
68074;SDS011;54864;52.002;5.468;2022-11-20T00:43:26;27.52;;;17.92;;
68074;SDS011;54864;52.002;5.468;2022-11-20T00:44:28;28.58;;;18.38;;
68074;SDS011;54864;52.002;5.468;2022-11-20T00:45:29;27.33;;;18.10;;
68074;SDS011;54864;52.002;5.468;2022-11-20T00:46:31;28.50;;;18.00;;
68074;SDS011;54864;52.002;5.468;2022-11-20T00:47:32;25.67;;;17.15;;
68074;SDS011;54864;52.002;5.468;2022-11-20T00:48:35;25.20;;;16.70;;
68074;SDS011;54864;52.002;5.468;2022-11-20T00:49:36;25.83;;;16.95;;
68074;SDS011;54864;52.002;5.468;2022-11-20T00:50:38;26.30;;;16.88;;
68074;SDS011;54864;52.002;5.468;2022-11-20T00:51:41;27.30;;;17.23;;
68074;SDS011;54864;52.002;5.468;2022-11-20T00:52:42;25.58;;;16.25;;
68074;SDS011;54864;52.002;5.468;2022-11-20T00:53:44;24.60;;;16.42;;
68074;SDS011;54864;52.002;5.468;2022-11-20T00:54:46;24.92;;;16.17;;
68074;SDS011;54864;52.002;5.468;2022-11-20T00:55:54;27.63;;;16.70;;
68074;SDS011;54864;52.002;5.468;2022-11-20T00:56:56;25.35;;;17.00;;
68074;SDS011;54864;52.002;5.468;2022-11-20T00:57:58;24.15;;;16.15;;
68074;SDS011;54864;52.002;5.468;2022-11-20T00:58:59;25.80;;;17.65;;
68074;SDS011;54864;52.002;5.468;2022-11-20T01:00:02;26.38;;;17.90;;
68074;SDS011;54864;52.002;5.468;2022-11-20T01:01:05;26.15;;;17.25;;
68074;SDS011;54864;52.002;5.468;2022-11-20T01:02:09;26.92;;;17.80;;
68074;SDS011;54864;52.002;5.468;2022-11-20T01:03:10;25.90;;;18.05;;
68074;SDS011;54864;52.002;5.468;2022-11-20T01:04:13;24.83;;;17.42;;
68074;SDS011;54864;52.002;5.468;2022-11-20T01:05:15;27.70;;;17.38;;
68074;SDS011;54864;52.002;5.468;2022-11-20T01:06:17;26.47;;;17.60;;
68074;SDS011;54864;52.002;5.468;2022-11-20T01:07:21;27.75;;;17.98;;
68074;SDS011;54864;52.002;5.468;2022-11-20T01:08:22;28.75;;;17.95;;
68074;SDS011;54864;52.002;5.468;2022-11-20T01:09:24;26.83;;;17.88;;
68074;SDS011;54864;52.002;5.468;2022-11-20T01:10:24;26.08;;;17.98;;
68074;SDS011;54864;52.002;5.468;2022-11-20T01:11:27;25.05;;;17.13;;
68074;SDS011;54864;52.002;5.468;2022-11-20T01:12:29;26.88;;;17.60;;
68074;SDS011;54864;52.002;5.468;2022-11-20T01:13:31;27.80;;;18.65;;
68074;SDS011;54864;52.002;5.468;2022-11-20T01:14:39;26.15;;;17.25;;
68074;SDS011;54864;52.002;5.468;2022-11-20T01:15:41;26.30;;;17.38;;
68074;SDS011;54864;52.002;5.468;2022-11-20T01:16:42;25.65;;;17.33;;
68074;SDS011;54864;52.002;5.468;2022-11-20T01:17:46;28.17;;;17.83;;
68074;SDS011;54864;52.002;5.468;2022-11-20T01:18:48;30.05;;;18.20;;
68074;SDS011;54864;52.002;5.468;2022-11-20T01:19:54;26.40;;;16.87;;
68074;SDS011;54864;52.002;5.468;2022-11-20T01:20:54;26.00;;;18.35;;
68074;SDS011;54864;52.002;5.468;2022-11-20T01:21:56;26.92;;;17.83;;
68074;SDS011;54864;52.002;5.468;2022-11-20T01:22:58;26.30;;;17.50;;
68074;SDS011;54864;52.002;5.468;2022-11-20T01:24:01;27.10;;;17.55;;
68074;SDS011;54864;52.002;5.468;2022-11-20T01:25:05;26.08;;;17.08;;
68074;SDS011;54864;52.002;5.468;2022-11-20T01:26:08;27.30;;;18.65;;
68074;SDS011;54864;52.002;5.468;2022-11-20T01:27:12;28.47;;;18.17;;
68074;SDS011;54864;52.002;5.468;2022-11-20T01:28:14;24.45;;;17.63;;
68074;SDS011;54864;52.002;5.468;2022-11-20T01:29:16;26.07;;;18.23;;
68074;SDS011;54864;52.002;5.468;2022-11-20T01:30:20;28.08;;;18.30;;
68074;SDS011;54864;52.002;5.468;2022-11-20T01:31:21;28.30;;;18.47;;
68074;SDS011;54864;52.002;5.468;2022-11-20T01:32:26;27.20;;;17.77;;
68074;SDS011;54864;52.002;5.468;2022-11-20T01:33:27;27.75;;;17.98;;
68074;SDS011;54864;52.002;5.468;2022-11-20T01:34:29;28.42;;;18.73;;
68074;SDS011;54864;52.002;5.468;2022-11-20T01:35:31;27.65;;;18.10;;
68074;SDS011;54864;52.002;5.468;2022-11-20T01:36:34;27.58;;;18.35;;
68074;SDS011;54864;52.002;5.468;2022-11-20T01:37:37;27.25;;;18.45;;
68074;SDS011;54864;52.002;5.468;2022-11-20T01:38:39;28.48;;;18.55;;
68074;SDS011;54864;52.002;5.468;2022-11-20T01:39:40;27.25;;;18.35;;
68074;SDS011;54864;52.002;5.468;2022-11-20T01:40:42;26.70;;;18.13;;
68074;SDS011;54864;52.002;5.468;2022-11-20T01:41:43;29.88;;;19.00;;
68074;SDS011;54864;52.002;5.468;2022-11-20T01:43:12;30.92;;;18.70;;
68074;SDS011;54864;52.002;5.468;2022-11-20T01:44:22;26.05;;;17.80;;
68074;SDS011;54864;52.002;5.468;2022-11-20T01:45:59;28.17;;;18.65;;
68074;SDS011;54864;52.002;5.468;2022-11-20T01:47:16;28.02;;;18.95;;
68074;SDS011;54864;52.002;5.468;2022-11-20T01:48:23;31.17;;;19.23;;
68074;SDS011;54864;52.002;5.468;2022-11-20T01:49:28;26.90;;;17.60;;
68074;SDS011;54864;52.002;5.468;2022-11-20T01:50:41;29.63;;;19.75;;
68074;SDS011;54864;52.002;5.468;2022-11-20T01:51:43;29.90;;;18.63;;
68074;SDS011;54864;52.002;5.468;2022-11-20T01:52:50;31.77;;;20.13;;
68074;SDS011;54864;52.002;5.468;2022-11-20T01:53:59;30.55;;;19.52;;
68074;SDS011;54864;52.002;5.468;2022-11-20T01:55:07;29.20;;;18.88;;
68074;SDS011;54864;52.002;5.468;2022-11-20T01:56:13;29.38;;;19.88;;
68074;SDS011;54864;52.002;5.468;2022-11-20T01:57:17;27.75;;;19.20;;
68074;SDS011;54864;52.002;5.468;2022-11-20T01:58:20;29.30;;;19.50;;
68074;SDS011;54864;52.002;5.468;2022-11-20T01:59:28;30.92;;;19.52;;
68074;SDS011;54864;52.002;5.468;2022-11-20T02:00:30;29.48;;;20.58;;
68074;SDS011;54864;52.002;5.468;2022-11-20T02:01:33;29.73;;;19.30;;
68074;SDS011;54864;52.002;5.468;2022-11-20T02:02:35;29.48;;;19.95;;
68074;SDS011;54864;52.002;5.468;2022-11-20T02:03:39;29.73;;;19.55;;
68074;SDS011;54864;52.002;5.468;2022-11-20T02:04:42;29.15;;;19.75;;
68074;SDS011;54864;52.002;5.468;2022-11-20T02:05:46;28.38;;;18.90;;
68074;SDS011;54864;52.002;5.468;2022-11-20T02:06:55;28.88;;;19.30;;
68074;SDS011;54864;52.002;5.468;2022-11-20T02:08:01;32.88;;;19.45;;
68074;SDS011;54864;52.002;5.468;2022-11-20T02:09:05;27.98;;;19.20;;
68074;SDS011;54864;52.002;5.468;2022-11-20T02:10:07;30.67;;;19.58;;
68074;SDS011;54864;52.002;5.468;2022-11-20T02:11:08;33.10;;;19.63;;
68074;SDS011;54864;52.002;5.468;2022-11-20T02:12:10;26.08;;;18.05;;
68074;SDS011;54864;52.002;5.468;2022-11-20T02:13:31;27.85;;;19.17;;
68074;SDS011;54864;52.002;5.468;2022-11-20T02:14:45;28.23;;;19.23;;
68074;SDS011;54864;52.002;5.468;2022-11-20T02:15:46;29.67;;;19.27;;
68074;SDS011;54864;52.002;5.468;2022-11-20T02:16:49;28.10;;;19.00;;
68074;SDS011;54864;52.002;5.468;2022-11-20T02:17:52;30.33;;;19.15;;
68074;SDS011;54864;52.002;5.468;2022-11-20T02:18:55;26.95;;;18.65;;
68074;SDS011;54864;52.002;5.468;2022-11-20T02:20:00;30.88;;;19.75;;
68074;SDS011;54864;52.002;5.468;2022-11-20T02:21:03;28.52;;;19.60;;
68074;SDS011;54864;52.002;5.468;2022-11-20T02:22:16;28.40;;;18.73;;
68074;SDS011;54864;52.002;5.468;2022-11-20T02:23:23;27.45;;;18.35;;
68074;SDS011;54864;52.002;5.468;2022-11-20T02:24:35;29.98;;;17.85;;
68074;SDS011;54864;52.002;5.468;2022-11-20T02:25:36;31.30;;;20.90;;
68074;SDS011;54864;52.002;5.468;2022-11-20T02:26:43;29.25;;;18.67;;
68074;SDS011;54864;52.002;5.468;2022-11-20T02:27:48;27.02;;;18.60;;
68074;SDS011;54864;52.002;5.468;2022-11-20T02:28:50;33.40;;;19.42;;
68074;SDS011;54864;52.002;5.468;2022-11-20T02:29:52;29.45;;;18.95;;
68074;SDS011;54864;52.002;5.468;2022-11-20T02:30:58;29.42;;;19.45;;
68074;SDS011;54864;52.002;5.468;2022-11-20T02:32:00;31.48;;;19.58;;
68074;SDS011;54864;52.002;5.468;2022-11-20T02:33:04;27.88;;;18.73;;
68074;SDS011;54864;52.002;5.468;2022-11-20T02:34:04;28.95;;;19.27;;
68074;SDS011;54864;52.002;5.468;2022-11-20T02:35:07;31.38;;;20.17;;
68074;SDS011;54864;52.002;5.468;2022-11-20T02:36:29;27.75;;;18.77;;
68074;SDS011;54864;52.002;5.468;2022-11-20T02:37:37;30.80;;;20.27;;
68074;SDS011;54864;52.002;5.468;2022-11-20T02:38:40;28.20;;;17.98;;
68074;SDS011;54864;52.002;5.468;2022-11-20T02:39:46;29.50;;;19.83;;
68074;SDS011;54864;52.002;5.468;2022-11-20T02:40:50;30.65;;;18.27;;
68074;SDS011;54864;52.002;5.468;2022-11-20T02:41:51;30.53;;;18.93;;
68074;SDS011;54864;52.002;5.468;2022-11-20T02:42:55;33.42;;;19.88;;
68074;SDS011;54864;52.002;5.468;2022-11-20T02:43:57;32.83;;;20.38;;
68074;SDS011;54864;52.002;5.468;2022-11-20T02:44:59;30.33;;;19.50;;
68074;SDS011;54864;52.002;5.468;2022-11-20T02:46:00;29.60;;;19.25;;
68074;SDS011;54864;52.002;5.468;2022-11-20T02:47:02;33.20;;;20.67;;
68074;SDS011;54864;52.002;5.468;2022-11-20T02:48:03;32.65;;;21.23;;
68074;SDS011;54864;52.002;5.468;2022-11-20T02:49:06;32.22;;;20.75;;
68074;SDS011;54864;52.002;5.468;2022-11-20T02:50:08;32.92;;;20.10;;
68074;SDS011;54864;52.002;5.468;2022-11-20T02:51:09;34.33;;;20.33;;
68074;SDS011;54864;52.002;5.468;2022-11-20T02:52:11;35.45;;;21.23;;
68074;SDS011;54864;52.002;5.468;2022-11-20T02:53:12;33.97;;;21.42;;
68074;SDS011;54864;52.002;5.468;2022-11-20T02:54:14;33.88;;;19.58;;
68074;SDS011;54864;52.002;5.468;2022-11-20T02:55:17;33.17;;;20.42;;
68074;SDS011;54864;52.002;5.468;2022-11-20T02:56:19;30.80;;;19.83;;
68074;SDS011;54864;52.002;5.468;2022-11-20T02:57:20;29.05;;;18.63;;
68074;SDS011;54864;52.002;5.468;2022-11-20T02:58:22;28.00;;;18.65;;
68074;SDS011;54864;52.002;5.468;2022-11-20T02:59:23;29.13;;;19.42;;
68074;SDS011;54864;52.002;5.468;2022-11-20T03:00:25;29.75;;;18.70;;
68074;SDS011;54864;52.002;5.468;2022-11-20T03:01:26;31.33;;;19.13;;
68074;SDS011;54864;52.002;5.468;2022-11-20T03:02:29;27.25;;;18.08;;
68074;SDS011;54864;52.002;5.468;2022-11-20T03:03:30;29.45;;;19.02;;
68074;SDS011;54864;52.002;5.468;2022-11-20T03:04:32;28.50;;;18.73;;
68074;SDS011;54864;52.002;5.468;2022-11-20T03:05:34;29.02;;;18.73;;
68074;SDS011;54864;52.002;5.468;2022-11-20T03:06:35;27.42;;;18.50;;
68074;SDS011;54864;52.002;5.468;2022-11-20T03:07:37;28.05;;;18.98;;
68074;SDS011;54864;52.002;5.468;2022-11-20T03:08:37;28.55;;;17.83;;
68074;SDS011;54864;52.002;5.468;2022-11-20T03:09:39;27.27;;;17.85;;
68074;SDS011;54864;52.002;5.468;2022-11-20T03:10:42;27.92;;;18.02;;
68074;SDS011;54864;52.002;5.468;2022-11-20T03:11:44;29.30;;;18.63;;
68074;SDS011;54864;52.002;5.468;2022-11-20T03:12:44;26.25;;;17.52;;
68074;SDS011;54864;52.002;5.468;2022-11-20T03:13:46;27.08;;;18.30;;
68074;SDS011;54864;52.002;5.468;2022-11-20T03:14:47;26.65;;;17.55;;
68074;SDS011;54864;52.002;5.468;2022-11-20T03:15:49;27.90;;;18.45;;
68074;SDS011;54864;52.002;5.468;2022-11-20T03:16:50;28.08;;;17.10;;
68074;SDS011;54864;52.002;5.468;2022-11-20T03:17:52;26.52;;;18.30;;
68074;SDS011;54864;52.002;5.468;2022-11-20T03:18:54;29.67;;;18.50;;
68074;SDS011;54864;52.002;5.468;2022-11-20T03:19:56;27.77;;;17.80;;
68074;SDS011;54864;52.002;5.468;2022-11-20T03:20:57;26.60;;;17.42;;
68074;SDS011;54864;52.002;5.468;2022-11-20T03:22:00;27.08;;;18.05;;
68074;SDS011;54864;52.002;5.468;2022-11-20T03:23:01;28.40;;;18.10;;
68074;SDS011;54864;52.002;5.468;2022-11-20T03:24:03;25.98;;;17.90;;
68074;SDS011;54864;52.002;5.468;2022-11-20T03:25:05;27.75;;;17.77;;
68074;SDS011;54864;52.002;5.468;2022-11-20T03:26:10;25.58;;;16.58;;
68074;SDS011;54864;52.002;5.468;2022-11-20T03:27:15;29.95;;;18.08;;
68074;SDS011;54864;52.002;5.468;2022-11-20T03:28:17;24.42;;;17.17;;
68074;SDS011;54864;52.002;5.468;2022-11-20T03:29:17;27.77;;;17.48;;
68074;SDS011;54864;52.002;5.468;2022-11-20T03:30:19;29.37;;;18.17;;
68074;SDS011;54864;52.002;5.468;2022-11-20T03:31:21;25.92;;;17.55;;
68074;SDS011;54864;52.002;5.468;2022-11-20T03:32:25;26.40;;;17.70;;
68074;SDS011;54864;52.002;5.468;2022-11-20T03:33:27;26.60;;;17.55;;
68074;SDS011;54864;52.002;5.468;2022-11-20T03:34:29;28.27;;;17.70;;
68074;SDS011;54864;52.002;5.468;2022-11-20T03:35:30;26.63;;;18.40;;
68074;SDS011;54864;52.002;5.468;2022-11-20T03:36:32;26.90;;;17.40;;
68074;SDS011;54864;52.002;5.468;2022-11-20T03:37:34;25.50;;;17.85;;
68074;SDS011;54864;52.002;5.468;2022-11-20T03:38:36;27.83;;;18.40;;
68074;SDS011;54864;52.002;5.468;2022-11-20T03:39:37;27.38;;;17.98;;
68074;SDS011;54864;52.002;5.468;2022-11-20T03:40:39;24.90;;;17.23;;
68074;SDS011;54864;52.002;5.468;2022-11-20T03:41:41;29.15;;;18.35;;
68074;SDS011;54864;52.002;5.468;2022-11-20T03:42:43;25.95;;;17.20;;
68074;SDS011;54864;52.002;5.468;2022-11-20T03:43:47;30.65;;;18.33;;
68074;SDS011;54864;52.002;5.468;2022-11-20T03:44:51;28.00;;;17.57;;
68074;SDS011;54864;52.002;5.468;2022-11-20T03:45:52;27.67;;;17.80;;
68074;SDS011;54864;52.002;5.468;2022-11-20T03:46:54;27.48;;;18.33;;
68074;SDS011;54864;52.002;5.468;2022-11-20T03:47:55;27.90;;;18.33;;
68074;SDS011;54864;52.002;5.468;2022-11-20T03:48:56;27.40;;;18.30;;
68074;SDS011;54864;52.002;5.468;2022-11-20T03:49:58;24.65;;;16.55;;
68074;SDS011;54864;52.002;5.468;2022-11-20T03:51:09;27.57;;;17.80;;
68074;SDS011;54864;52.002;5.468;2022-11-20T03:52:12;26.30;;;17.20;;
68074;SDS011;54864;52.002;5.468;2022-11-20T03:53:13;29.58;;;18.65;;
68074;SDS011;54864;52.002;5.468;2022-11-20T03:54:15;27.83;;;18.67;;
68074;SDS011;54864;52.002;5.468;2022-11-20T03:55:16;27.25;;;18.15;;
68074;SDS011;54864;52.002;5.468;2022-11-20T03:56:19;26.08;;;17.70;;
68074;SDS011;54864;52.002;5.468;2022-11-20T03:57:24;26.88;;;17.42;;
68074;SDS011;54864;52.002;5.468;2022-11-20T03:58:25;27.58;;;17.70;;
68074;SDS011;54864;52.002;5.468;2022-11-20T03:59:26;30.83;;;18.95;;
68074;SDS011;54864;52.002;5.468;2022-11-20T04:00:28;28.48;;;17.90;;
68074;SDS011;54864;52.002;5.468;2022-11-20T04:01:30;23.52;;;16.80;;
68074;SDS011;54864;52.002;5.468;2022-11-20T04:02:34;25.35;;;17.17;;
68074;SDS011;54864;52.002;5.468;2022-11-20T04:03:36;26.60;;;17.63;;
68074;SDS011;54864;52.002;5.468;2022-11-20T04:04:40;25.42;;;17.63;;
68074;SDS011;54864;52.002;5.468;2022-11-20T04:05:41;27.87;;;17.87;;
68074;SDS011;54864;52.002;5.468;2022-11-20T04:06:43;30.23;;;18.65;;
68074;SDS011;54864;52.002;5.468;2022-11-20T04:07:44;27.00;;;17.83;;
68074;SDS011;54864;52.002;5.468;2022-11-20T04:08:46;26.90;;;18.40;;
68074;SDS011;54864;52.002;5.468;2022-11-20T04:09:48;28.33;;;17.63;;
68074;SDS011;54864;52.002;5.468;2022-11-20T04:10:49;27.63;;;18.48;;
68074;SDS011;54864;52.002;5.468;2022-11-20T04:11:50;29.13;;;17.58;;
68074;SDS011;54864;52.002;5.468;2022-11-20T04:12:53;28.55;;;18.10;;
68074;SDS011;54864;52.002;5.468;2022-11-20T04:13:55;25.15;;;16.88;;
68074;SDS011;54864;52.002;5.468;2022-11-20T04:15:00;27.75;;;17.95;;
68074;SDS011;54864;52.002;5.468;2022-11-20T04:16:01;27.38;;;17.23;;
68074;SDS011;54864;52.002;5.468;2022-11-20T04:17:03;24.55;;;17.42;;
68074;SDS011;54864;52.002;5.468;2022-11-20T04:18:04;24.20;;;16.60;;
68074;SDS011;54864;52.002;5.468;2022-11-20T04:19:08;27.65;;;18.08;;
68074;SDS011;54864;52.002;5.468;2022-11-20T04:20:13;26.40;;;16.95;;
68074;SDS011;54864;52.002;5.468;2022-11-20T04:21:15;26.38;;;17.42;;
68074;SDS011;54864;52.002;5.468;2022-11-20T04:22:15;27.20;;;16.80;;
68074;SDS011;54864;52.002;5.468;2022-11-20T04:23:17;29.88;;;18.05;;
68074;SDS011;54864;52.002;5.468;2022-11-20T04:24:18;26.02;;;17.73;;
68074;SDS011;54864;52.002;5.468;2022-11-20T04:25:20;30.08;;;17.88;;
68074;SDS011;54864;52.002;5.468;2022-11-20T04:26:21;25.30;;;17.80;;
68074;SDS011;54864;52.002;5.468;2022-11-20T04:27:25;26.98;;;18.17;;
68074;SDS011;54864;52.002;5.468;2022-11-20T04:28:28;27.37;;;17.47;;
68074;SDS011;54864;52.002;5.468;2022-11-20T04:29:29;27.67;;;17.67;;
68074;SDS011;54864;52.002;5.468;2022-11-20T04:30:30;28.38;;;18.80;;
68074;SDS011;54864;52.002;5.468;2022-11-20T04:31:33;27.63;;;17.88;;
68074;SDS011;54864;52.002;5.468;2022-11-20T04:32:35;25.90;;;17.50;;
68074;SDS011;54864;52.002;5.468;2022-11-20T04:33:36;27.83;;;18.15;;
68074;SDS011;54864;52.002;5.468;2022-11-20T04:34:38;26.92;;;18.30;;
68074;SDS011;54864;52.002;5.468;2022-11-20T04:35:40;28.92;;;18.70;;
68074;SDS011;54864;52.002;5.468;2022-11-20T04:36:41;27.15;;;17.92;;
68074;SDS011;54864;52.002;5.468;2022-11-20T04:37:43;26.55;;;17.23;;
68074;SDS011;54864;52.002;5.468;2022-11-20T04:38:44;27.92;;;17.73;;
68074;SDS011;54864;52.002;5.468;2022-11-20T04:39:46;26.02;;;17.33;;
68074;SDS011;54864;52.002;5.468;2022-11-20T04:40:47;30.85;;;17.50;;
68074;SDS011;54864;52.002;5.468;2022-11-20T04:41:49;27.83;;;17.77;;
68074;SDS011;54864;52.002;5.468;2022-11-20T04:43:10;27.27;;;18.08;;
68074;SDS011;54864;52.002;5.468;2022-11-20T04:44:13;25.50;;;17.35;;
68074;SDS011;54864;52.002;5.468;2022-11-20T04:45:14;27.55;;;18.48;;
68074;SDS011;54864;52.002;5.468;2022-11-20T04:46:16;26.00;;;17.10;;
68074;SDS011;54864;52.002;5.468;2022-11-20T04:47:18;26.98;;;17.92;;
68074;SDS011;54864;52.002;5.468;2022-11-20T04:48:20;27.63;;;17.65;;
68074;SDS011;54864;52.002;5.468;2022-11-20T04:49:22;25.80;;;17.77;;
68074;SDS011;54864;52.002;5.468;2022-11-20T04:50:23;28.55;;;17.80;;
68074;SDS011;54864;52.002;5.468;2022-11-20T04:51:24;26.92;;;18.33;;
68074;SDS011;54864;52.002;5.468;2022-11-20T04:52:26;30.45;;;18.40;;
68074;SDS011;54864;52.002;5.468;2022-11-20T04:53:27;28.77;;;18.85;;
68074;SDS011;54864;52.002;5.468;2022-11-20T04:54:29;28.42;;;19.05;;
68074;SDS011;54864;52.002;5.468;2022-11-20T04:55:30;28.73;;;18.55;;
68074;SDS011;54864;52.002;5.468;2022-11-20T04:56:32;28.38;;;17.85;;
68074;SDS011;54864;52.002;5.468;2022-11-20T04:57:33;30.10;;;18.45;;
68074;SDS011;54864;52.002;5.468;2022-11-20T04:58:35;27.63;;;18.40;;
68074;SDS011;54864;52.002;5.468;2022-11-20T04:59:41;25.15;;;18.00;;
68074;SDS011;54864;52.002;5.468;2022-11-20T05:00:43;30.48;;;18.50;;
68074;SDS011;54864;52.002;5.468;2022-11-20T05:01:44;29.33;;;17.73;;
68074;SDS011;54864;52.002;5.468;2022-11-20T05:02:46;26.00;;;17.80;;
68074;SDS011;54864;52.002;5.468;2022-11-20T05:03:47;25.90;;;17.33;;
68074;SDS011;54864;52.002;5.468;2022-11-20T05:04:50;29.60;;;17.77;;
68074;SDS011;54864;52.002;5.468;2022-11-20T05:05:51;27.15;;;18.50;;
68074;SDS011;54864;52.002;5.468;2022-11-20T05:06:52;31.92;;;19.58;;
68074;SDS011;54864;52.002;5.468;2022-11-20T05:07:55;30.73;;;18.67;;
68074;SDS011;54864;52.002;5.468;2022-11-20T05:08:58;27.58;;;17.83;;
68074;SDS011;54864;52.002;5.468;2022-11-20T05:09:59;27.65;;;18.42;;
68074;SDS011;54864;52.002;5.468;2022-11-20T05:11:01;27.65;;;18.75;;
68074;SDS011;54864;52.002;5.468;2022-11-20T05:12:06;27.40;;;18.00;;
68074;SDS011;54864;52.002;5.468;2022-11-20T05:13:11;27.48;;;18.10;;
68074;SDS011;54864;52.002;5.468;2022-11-20T05:14:12;27.40;;;18.85;;
68074;SDS011;54864;52.002;5.468;2022-11-20T05:15:16;28.52;;;18.63;;
68074;SDS011;54864;52.002;5.468;2022-11-20T05:16:17;26.42;;;18.65;;
68074;SDS011;54864;52.002;5.468;2022-11-20T05:17:22;29.15;;;19.33;;
68074;SDS011;54864;52.002;5.468;2022-11-20T05:18:22;28.33;;;18.20;;
68074;SDS011;54864;52.002;5.468;2022-11-20T05:19:24;25.58;;;17.50;;
68074;SDS011;54864;52.002;5.468;2022-11-20T05:20:25;28.90;;;18.60;;
68074;SDS011;54864;52.002;5.468;2022-11-20T05:21:29;27.58;;;18.60;;
68074;SDS011;54864;52.002;5.468;2022-11-20T05:22:30;28.02;;;18.30;;
68074;SDS011;54864;52.002;5.468;2022-11-20T05:23:32;28.90;;;18.88;;
68074;SDS011;54864;52.002;5.468;2022-11-20T05:24:34;29.15;;;18.63;;
68074;SDS011;54864;52.002;5.468;2022-11-20T05:25:36;27.80;;;18.10;;
68074;SDS011;54864;52.002;5.468;2022-11-20T05:26:37;28.25;;;18.30;;
68074;SDS011;54864;52.002;5.468;2022-11-20T05:27:39;26.58;;;18.27;;
68074;SDS011;54864;52.002;5.468;2022-11-20T05:28:40;26.70;;;18.02;;
68074;SDS011;54864;52.002;5.468;2022-11-20T05:29:42;25.25;;;17.38;;
68074;SDS011;54864;52.002;5.468;2022-11-20T05:30:45;29.00;;;18.77;;
68074;SDS011;54864;52.002;5.468;2022-11-20T05:31:46;28.73;;;18.33;;
68074;SDS011;54864;52.002;5.468;2022-11-20T05:32:48;28.25;;;18.67;;
68074;SDS011;54864;52.002;5.468;2022-11-20T05:33:49;28.30;;;18.93;;
68074;SDS011;54864;52.002;5.468;2022-11-20T05:34:51;26.45;;;17.83;;
68074;SDS011;54864;52.002;5.468;2022-11-20T05:35:52;27.15;;;17.33;;
68074;SDS011;54864;52.002;5.468;2022-11-20T05:36:54;29.08;;;18.45;;
68074;SDS011;54864;52.002;5.468;2022-11-20T05:37:55;29.50;;;17.63;;
68074;SDS011;54864;52.002;5.468;2022-11-20T05:38:59;24.90;;;17.50;;
68074;SDS011;54864;52.002;5.468;2022-11-20T05:40:00;27.65;;;17.65;;
68074;SDS011;54864;52.002;5.468;2022-11-20T05:41:05;28.05;;;17.40;;
68074;SDS011;54864;52.002;5.468;2022-11-20T05:42:07;28.85;;;18.27;;
68074;SDS011;54864;52.002;5.468;2022-11-20T05:43:27;29.42;;;18.48;;
68074;SDS011;54864;52.002;5.468;2022-11-20T05:44:31;28.92;;;18.88;;
68074;SDS011;54864;52.002;5.468;2022-11-20T05:45:33;27.55;;;18.38;;
68074;SDS011;54864;52.002;5.468;2022-11-20T05:46:36;28.95;;;17.95;;
68074;SDS011;54864;52.002;5.468;2022-11-20T05:47:38;28.42;;;18.63;;
68074;SDS011;54864;52.002;5.468;2022-11-20T05:48:40;26.52;;;17.83;;
68074;SDS011;54864;52.002;5.468;2022-11-20T05:49:43;26.17;;;17.67;;
68074;SDS011;54864;52.002;5.468;2022-11-20T05:50:44;26.42;;;17.27;;
68074;SDS011;54864;52.002;5.468;2022-11-20T05:51:46;29.60;;;19.10;;
68074;SDS011;54864;52.002;5.468;2022-11-20T05:52:47;28.47;;;18.57;;
68074;SDS011;54864;52.002;5.468;2022-11-20T05:53:49;27.85;;;18.83;;
68074;SDS011;54864;52.002;5.468;2022-11-20T05:54:50;27.27;;;18.48;;
68074;SDS011;54864;52.002;5.468;2022-11-20T05:55:58;27.87;;;19.03;;
68074;SDS011;54864;52.002;5.468;2022-11-20T05:57:00;28.03;;;18.43;;
68074;SDS011;54864;52.002;5.468;2022-11-20T05:58:02;26.73;;;17.85;;
68074;SDS011;54864;52.002;5.468;2022-11-20T05:59:03;29.90;;;18.98;;
68074;SDS011;54864;52.002;5.468;2022-11-20T06:00:05;27.05;;;18.23;;
68074;SDS011;54864;52.002;5.468;2022-11-20T06:01:10;29.75;;;18.80;;
68074;SDS011;54864;52.002;5.468;2022-11-20T06:02:16;28.13;;;18.17;;
68074;SDS011;54864;52.002;5.468;2022-11-20T06:03:18;28.90;;;19.83;;
68074;SDS011;54864;52.002;5.468;2022-11-20T06:04:19;28.08;;;18.33;;
68074;SDS011;54864;52.002;5.468;2022-11-20T06:05:21;32.10;;;19.63;;
68074;SDS011;54864;52.002;5.468;2022-11-20T06:06:22;33.75;;;20.05;;
68074;SDS011;54864;52.002;5.468;2022-11-20T06:07:25;28.85;;;19.05;;
68074;SDS011;54864;52.002;5.468;2022-11-20T06:08:25;28.42;;;19.27;;